WetterOnline ( https://www.wetteronline.de )

Wetter aktuell Gerwisch

Aktuelles Wetter: Magdeburg (85m)

6-stündlich | Neueste Meldungen
Ortszeit Temperatur Wetter
Di, 07.12. 13:00 2.6° C leicht bewölkt
Di, 07.12. 7:00 -0.9° C bedeckt
Di, 07.12. 1:00 -0.2° C wolkig
Mo, 06.12. 19:00 -0.5° C fast wolkenlos
Mo, 06.12. 13:00 0.8° C bewölkt
Mo, 06.12. 7:00 1.0° C bedeckt
Mo, 06.12. 1:00 1.5° C bedeckt
So, 05.12. 19:00 3.0° C bedeckt
Ortszeit Temperatur Wetter
Di, 07.12. 15:30 2.5° C bedeckt
Di, 07.12. 15:20 2.5° C bedeckt
Di, 07.12. 15:10 2.5° C bedeckt
Di, 07.12. 15:00 2.5° C bedeckt
Di, 07.12. 14:50 2.5° C bedeckt
Di, 07.12. 14:40 2.6° C bedeckt
Di, 07.12. 14:30 2.6° C bedeckt
Di, 07.12. 14:00 2.5° C bedeckt
Di, 07.12. 13:30 2.4° C bewölkt
Di, 07.12. 13:00 2.6° C leicht bewölkt
Di, 07.12. 12:30 2.4° C wolkenlos
Ortszeit Relative Feuchte Sichtweite
Di, 07.12. 13:00 78% 19 km
Di, 07.12. 7:00 92% 8 km
Di, 07.12. 1:00 89% 9 km
Mo, 06.12. 19:00 88% 11 km
Mo, 06.12. 13:00 85% 11 km
Mo, 06.12. 7:00 92% 9 km
Mo, 06.12. 1:00 96% 3.8 km
So, 05.12. 19:00 96% 4.6 km
Ortszeit Relative Feuchte Sichtweite
Di, 07.12. 15:30 84% 15 km
Di, 07.12. 15:20 84% -
Di, 07.12. 15:10 85% -
Di, 07.12. 15:00 84% 14 km
Di, 07.12. 14:50 84% -
Di, 07.12. 14:40 84% -
Di, 07.12. 14:30 84% 15 km
Di, 07.12. 14:00 83% 15 km
Di, 07.12. 13:30 82% 16 km
Di, 07.12. 13:00 78% 19 km
Di, 07.12. 12:30 78% 16 km
Ortszeit Niederschlagsmenge Niederschlagsart
Di, 07.12. 13:00 0.0 l/m2 in 6 Std. -
Di, 07.12. 7:00 0.0 l/m2 in 12 Std. -
Di, 07.12. 1:00 0.0 l/m2 in 6 Std. -
Mo, 06.12. 19:00 0.0 l/m2 in 12 Std. -
Mo, 06.12. 13:00 0.0 l/m2 in 6 Std. -
Mo, 06.12. 7:00 0.3 l/m2 in 12 Std. Schnee, Regen
Mo, 06.12. 1:00 0.0 l/m2 in 6 Std. -
So, 05.12. 19:00 0.0 l/m2 in 12 Std. -
Ortszeit Niederschlagsmenge Niederschlagsart
Di, 07.12. 15:30 0.0 l/m2 in 1 Std. -
Di, 07.12. 15:20 keine Meldung -
Di, 07.12. 15:10 keine Meldung -
Di, 07.12. 15:00 0.0 l/m2 in 1 Std. -
Di, 07.12. 14:50 keine Meldung -
Di, 07.12. 14:40 keine Meldung -
Di, 07.12. 14:30 0.0 l/m2 in 1 Std. -
Di, 07.12. 14:00 0.0 l/m2 in 1 Std. -
Di, 07.12. 13:30 0.0 l/m2 in 1 Std. -
Di, 07.12. 13:00 0.0 l/m2 in 1 Std. -
Di, 07.12. 12:30 0.0 l/m2 in 1 Std. -
Ortszeit Stärke Spitze Richtung
km/h Bft. km/h Grad Sektor
Di, 07.12. 13:00 7 2 18 160° S
Di, 07.12. 7:00 7 2 25 130° SO
Di, 07.12. 1:00 14 3 29 130° SO
Mo, 06.12. 19:00 7 2 18 140° SO
Mo, 06.12. 13:00 6 1 19 140° SO
Mo, 06.12. 7:00 7 2 20 30° NO
Mo, 06.12. 1:00 11 2 18 10° N
So, 05.12. 19:00 4 1 14 10° N
Ortszeit Stärke Spitze Richtung
km/h Bft. km/h Grad Sektor
Di, 07.12. 15:30 7 2 11 130° SO
Di, 07.12. 15:20 7 2 - 130° SO
Di, 07.12. 15:10 7 2 - 130° SO
Di, 07.12. 15:00 7 2 14 130° SO
Di, 07.12. 14:50 7 2 - 130° SO
Di, 07.12. 14:40 7 2 - 140° SO
Di, 07.12. 14:30 7 2 14 140° SO
Di, 07.12. 14:00 7 2 14 150° SO
Di, 07.12. 13:30 6 1 15 150° SO
Di, 07.12. 13:00 7 2 14 160° S
Di, 07.12. 12:30 9 2 17 130° SO
Ortszeit Untergrenze Bedeckung Gattung
total tief tief mittel hoch
Di, 07.12. 13:00 930 m 3/8 3/8 - - -
Di, 07.12. 7:00 5100 m 8/8 8/8 - - -
Di, 07.12. 1:00 1500 m 7/8 4/8 - - -
Mo, 06.12. 19:00 8400 m 2/8 0/8 - - -
Mo, 06.12. 13:00 300 m 7/8 7/8 - - -
Mo, 06.12. 7:00 210 m 8/8 8/8 - - -
Mo, 06.12. 1:00 120 m 8/8 8/8 - - -
So, 05.12. 19:00 90 m 8/8 8/8 - - -
Ortszeit Bedeckungsgrad in Achtel und Wolkenuntergrenze
Di, 07.12. 15:30 7(990m) 8(1500m)
Di, 07.12. 15:20 7(990m) 8(1500m)
Di, 07.12. 15:10 8(960m) 8(1500m)
Di, 07.12. 15:00 8(930m) 8(1500m)
Di, 07.12. 14:50 8(930m) 8(1500m)
Di, 07.12. 14:40 8(900m) 8(1500m)
Di, 07.12. 14:30 8(870m)
Di, 07.12. 14:00 8(900m) 8(1800m)
Di, 07.12. 13:30 7(930m) 7(1800m)
Di, 07.12. 13:00 3(930m) 3(1500m)
Di, 07.12. 12:30 keine Wolken
Ortszeit Luftdruck NN (hPa) Tendenz (hPa in 3 Std.)
Di, 07.12. 13:00 1011 + 0,1
Di, 07.12. 7:00 1009 + 0,2
Di, 07.12. 1:00 1011 - 2,4
Mo, 06.12. 19:00 1015 - 1,3
Mo, 06.12. 13:00 1017 - 0,3
Mo, 06.12. 7:00 1015 + 1,8
Mo, 06.12. 1:00 1012 + 1,2
So, 05.12. 19:00 1008 + 1,8
Ortszeit Luftdruck NN (hPa) Tendenz (hPa in 3 Std.)
Di, 07.12. 15:30 1011 + 0,4
Di, 07.12. 15:20 1011 keine Meldung
Di, 07.12. 15:10 1011 keine Meldung
Di, 07.12. 15:00 1011 + 0,3
Di, 07.12. 14:50 1011 keine Meldung
Di, 07.12. 14:40 1011 keine Meldung
Di, 07.12. 14:30 1011 + 0,1
Di, 07.12. 14:00 1011 + 0,3
Di, 07.12. 13:30 1011 + 0,3
Di, 07.12. 13:00 1011 + 0,1
Di, 07.12. 12:30 1011 + 0,1
Ortszeit Schneehöhe (cm)
Di, 07.12. 13:00 0
Di, 07.12. 7:00 0
Di, 07.12. 1:00 0
Mo, 06.12. 19:00 0
Mo, 06.12. 13:00 0
Mo, 06.12. 7:00 0
Mo, 06.12. 1:00 0
So, 05.12. 19:00 0
Ortszeit Schneehöhe (cm)
Di, 07.12. 15:30 0
Di, 07.12. 15:20 0
Di, 07.12. 15:10 0
Di, 07.12. 15:00 0
Di, 07.12. 14:50 0
Di, 07.12. 14:40 0
Di, 07.12. 14:30 0
Di, 07.12. 14:00 0
Di, 07.12. 13:30 0
Di, 07.12. 13:00 0
Di, 07.12. 12:30 0
Link zu dieser Seite / Seite empfehlen

Das Wetter in ...